createdAt,value
2019-04-10T00:00:35.145Z,0
2019-04-10T00:01:36.402Z,0
2019-04-10T00:02:37.921Z,0
2019-04-10T00:03:41.762Z,0
2019-04-10T00:04:40.803Z,0
2019-04-10T00:05:42.558Z,0
2019-04-10T00:06:43.838Z,0
2019-04-10T00:07:45.817Z,0
2019-04-10T00:08:46.428Z,0
2019-04-10T00:09:48.013Z,0
2019-04-10T00:10:49.408Z,0
2019-04-10T00:11:53.426Z,0
2019-04-10T00:12:54.090Z,0
2019-04-10T00:13:55.398Z,0
2019-04-10T00:14:56.813Z,0
2019-04-10T00:15:59.024Z,0
2019-04-10T00:17:00.503Z,0
2019-04-10T00:18:01.862Z,0
2019-04-10T00:19:02.531Z,0
2019-04-10T00:20:04.330Z,0
2019-04-10T00:21:05.414Z,0
2019-04-10T00:22:06.935Z,0
2019-04-10T00:23:08.919Z,0
2019-04-10T00:24:09.819Z,0
2019-04-10T00:25:11.212Z,0
2019-04-10T00:26:13.188Z,0
2019-04-10T00:27:14.550Z,0
2019-04-10T00:28:15.786Z,0
2019-04-10T00:29:18.189Z,0
2019-04-10T00:30:18.705Z,0
2019-04-10T00:31:20.133Z,0
2019-04-10T00:32:21.750Z,0
2019-04-10T00:33:23.147Z,0
2019-04-10T00:34:25.409Z,0
2019-04-10T00:35:26.072Z,0
2019-04-10T00:36:27.474Z,0
2019-04-10T00:37:30.259Z,0
2019-04-10T00:38:30.395Z,0
2019-04-10T00:39:32.754Z,0
2019-04-10T00:40:33.234Z,0
2019-04-10T00:41:34.716Z,0
2019-04-10T00:42:36.984Z,0
2019-04-10T00:43:39.949Z,0
2019-04-10T00:44:39.977Z,0
2019-04-10T00:45:41.834Z,0
2019-04-10T00:46:42.858Z,0
2019-04-10T00:47:45.485Z,0
2019-04-10T00:48:45.743Z,0
2019-04-10T00:49:48.156Z,0
2019-04-10T00:50:48.772Z,0
2019-04-10T00:51:50.065Z,0
2019-04-10T00:52:52.534Z,0
2019-04-10T00:53:53.873Z,0
2019-04-10T00:54:55.362Z,0
2019-04-10T00:55:56.373Z,0
2019-04-10T00:56:57.345Z,0
2019-04-10T00:57:58.738Z,0
2019-04-10T00:59:00.135Z,0
2019-04-10T01:00:01.668Z,0
2019-04-10T01:01:03.436Z,0
2019-04-10T01:02:04.625Z,0
2019-04-10T01:03:05.904Z,0
2019-04-10T01:04:08.462Z,0
2019-04-10T01:05:10.998Z,0
2019-04-10T01:06:11.497Z,0
2019-04-10T01:07:12.790Z,0
2019-04-10T01:08:14.426Z,0
2019-04-10T01:09:15.819Z,0
2019-04-10T01:10:17.850Z,0
2019-04-10T01:11:18.996Z,0
2019-04-10T01:12:21.529Z,0
2019-04-10T01:13:22.931Z,0
2019-04-10T01:14:23.392Z,0
2019-04-10T01:15:24.667Z,0
2019-04-10T01:16:27.078Z,0
2019-04-10T01:17:28.437Z,0
2019-04-10T01:18:29.096Z,0
2019-04-10T01:19:30.492Z,0
2019-04-10T01:20:32.124Z,0
2019-04-10T01:21:34.581Z,0
2019-04-10T01:22:35.044Z,0
2019-04-10T01:23:37.924Z,0
2019-04-10T01:24:37.731Z,0
2019-04-10T01:25:39.317Z,0
2019-04-10T01:26:40.707Z,0
2019-04-10T01:27:42.500Z,0
2019-04-10T01:28:44.942Z,0
2019-04-10T01:29:46.090Z,0
2019-04-10T01:30:46.639Z,0
2019-04-10T01:31:48.037Z,0
2019-04-10T01:32:50.164Z,0
2019-04-10T01:33:50.966Z,0
2019-04-10T01:34:52.363Z,0
2019-04-10T01:35:54.321Z,0
2019-04-10T01:36:56.408Z,0
2019-04-10T01:38:00.839Z,0
2019-04-10T01:38:58.249Z,0
2019-04-10T01:39:59.640Z,0
2019-04-10T01:41:01.542Z,0
2019-04-10T01:42:02.566Z,0
2019-04-10T01:43:09.695Z,0
2019-04-10T01:44:05.674Z,0
2019-04-10T01:45:06.907Z,0
2019-04-10T01:46:08.387Z,0
2019-04-10T01:47:10.824Z,0
2019-04-10T01:48:12.087Z,0
2019-04-10T01:49:13.490Z,0
2019-04-10T01:50:14.520Z,0
2019-04-10T01:51:15.370Z,0
2019-04-10T01:52:17.209Z,0
2019-04-10T01:53:18.336Z,0
2019-04-10T01:54:19.754Z,0
2019-04-10T01:55:25.802Z,0
2019-04-10T01:56:30.205Z,0
2019-04-10T01:57:24.070Z,0
2019-04-10T01:58:25.616Z,0
2019-04-10T01:59:27.010Z,0
2019-04-10T02:00:28.407Z,0
2019-04-10T02:01:29.992Z,0
2019-04-10T02:02:31.647Z,0
2019-04-10T02:03:32.827Z,0
2019-04-10T02:04:35.154Z,0
2019-04-10T02:05:36.586Z,0
2019-04-10T02:06:37.708Z,0
2019-04-10T02:07:38.424Z,0
2019-04-10T02:08:40.309Z,0
2019-04-10T02:09:41.480Z,0
2019-04-10T02:10:42.747Z,0
2019-04-10T02:11:44.338Z,0
2019-04-10T02:12:45.730Z,0
2019-04-10T02:13:47.671Z,0
2019-04-10T02:14:48.838Z,0
2019-04-10T02:15:50.262Z,0
2019-04-10T02:16:51.552Z,0
2019-04-10T02:17:53.011Z,0
2019-04-10T02:18:54.378Z,0
2019-04-10T02:19:56.719Z,0
2019-04-10T02:20:57.438Z,0
2019-04-10T02:21:58.950Z,0
2019-04-10T02:23:00.358Z,0
2019-04-10T02:24:02.897Z,0
2019-04-10T02:25:03.490Z,0
2019-04-10T02:26:05.358Z,0
2019-04-10T02:27:06.276Z,0
2019-04-10T02:28:08.916Z,0
2019-04-10T02:29:09.247Z,0
2019-04-10T02:30:12.167Z,0
2019-04-10T02:31:12.550Z,0
2019-04-10T02:32:14.577Z,0
2019-04-10T02:33:15.925Z,0
2019-04-10T02:34:17.225Z,0
2019-04-10T02:35:19.708Z,0
2019-04-10T02:36:19.475Z,0
2019-04-10T02:37:20.559Z,0
2019-04-10T02:38:40.080Z,0
2019-04-10T02:39:29.682Z,0
2019-04-10T02:40:25.569Z,0
2019-04-10T02:41:27.809Z,0
2019-04-10T02:42:27.618Z,0
2019-04-10T02:43:29.258Z,0
2019-04-10T02:44:30.714Z,0
2019-04-10T02:45:32.567Z,0
2019-04-10T02:46:33.533Z,0
2019-04-10T02:47:34.919Z,0
2019-04-10T02:48:36.310Z,0
2019-04-10T02:49:38.555Z,0
2019-04-10T02:50:40.605Z,0
2019-04-10T02:51:41.270Z,0
2019-04-10T02:52:43.216Z,0
2019-04-10T02:53:43.812Z,0
2019-04-10T02:54:46.007Z,0
2019-04-10T02:55:47.512Z,0
2019-04-10T02:56:49.462Z,0
2019-04-10T02:57:49.902Z,0
2019-04-10T02:58:51.599Z,0
2019-04-10T02:59:53.658Z,0
2019-04-10T03:00:54.859Z,0
2019-04-10T03:01:56.111Z,0
2019-04-10T03:02:57.738Z,0
2019-04-10T03:03:59.109Z,0
2019-04-10T03:04:59.480Z,0
2019-04-10T03:06:00.849Z,0
2019-04-10T03:07:04.070Z,0
2019-04-10T03:08:04.863Z,0
2019-04-10T03:09:25.165Z,0
2019-04-10T03:10:17.508Z,0
2019-04-10T03:11:11.538Z,0
2019-04-10T03:12:10.378Z,0
2019-04-10T03:13:11.692Z,0
2019-04-10T03:14:12.629Z,0
2019-04-10T03:15:14.906Z,0
2019-04-10T03:16:15.925Z,0
2019-04-10T03:17:17.678Z,0
2019-04-10T03:18:18.832Z,0
2019-04-10T03:19:19.618Z,0
2019-04-10T03:20:21.008Z,0
2019-04-10T03:21:22.841Z,0
2019-04-10T03:22:24.976Z,0
2019-04-10T03:23:25.585Z,0
2019-04-10T03:24:27.469Z,0
2019-04-10T03:25:28.878Z,0
2019-04-10T03:26:29.897Z,0
2019-04-10T03:27:31.343Z,0
2019-04-10T03:28:33.451Z,0
2019-04-10T03:29:34.228Z,0
2019-04-10T03:30:36.920Z,0
2019-04-10T03:31:38.921Z,0
2019-04-10T03:32:41.719Z,0
2019-04-10T03:33:44.190Z,0
2019-04-10T03:34:43.251Z,0
2019-04-10T03:35:43.089Z,0
2019-04-10T03:36:45.414Z,0
2019-04-10T03:37:46.636Z,0
2019-04-10T03:38:55.400Z,0
2019-04-10T03:39:48.929Z,0
2019-04-10T03:40:50.073Z,0
2019-04-10T03:41:52.540Z,0
2019-04-10T03:42:53.023Z,0
2019-04-10T03:43:54.403Z,0
2019-04-10T03:44:56.895Z,0
2019-04-10T03:45:57.189Z,0
2019-04-10T03:46:58.775Z,0
2019-04-10T03:48:00.112Z,0
2019-04-10T03:49:01.507Z,0
2019-04-10T03:50:03.036Z,0
2019-04-10T03:51:04.431Z,0
2019-04-10T03:52:05.835Z,0
2019-04-10T03:53:07.571Z,0
2019-04-10T03:54:09.075Z,0
2019-04-10T03:55:10.499Z,0
2019-04-10T03:56:11.735Z,0
2019-04-10T03:57:13.984Z,0
2019-04-10T03:58:15.430Z,0
2019-04-10T03:59:16.017Z,0
2019-04-10T04:00:18.120Z,0
2019-04-10T04:01:18.878Z,0
2019-04-10T04:02:20.277Z,0
2019-04-10T04:03:21.966Z,0
2019-04-10T04:04:23.763Z,0
2019-04-10T04:05:24.846Z,0
2019-04-10T04:06:27.845Z,0
2019-04-10T04:07:29.131Z,0
2019-04-10T04:08:31.893Z,0
2019-04-10T04:09:32.474Z,0
2019-04-10T04:10:34.949Z,0
2019-04-10T04:11:35.338Z,0
2019-04-10T04:12:37.028Z,0
2019-04-10T04:13:38.214Z,0
2019-04-10T04:14:39.614Z,0
2019-04-10T04:15:42.132Z,4
2019-04-10T04:16:43.612Z,0
2019-04-10T04:17:44.418Z,0
2019-04-10T04:18:45.649Z,4
2019-04-10T04:19:47.059Z,4
2019-04-10T04:20:48.458Z,4
2019-04-10T04:21:50.249Z,4
2019-04-10T04:22:51.505Z,4
2019-04-10T04:23:53.262Z,4
2019-04-10T04:24:54.390Z,8
2019-04-10T04:25:56.849Z,8
2019-04-10T04:26:57.374Z,12
2019-04-10T04:27:58.627Z,12
2019-04-10T04:29:00.227Z,12
2019-04-10T04:30:01.624Z,16
2019-04-10T04:31:03.105Z,20
2019-04-10T04:32:04.822Z,24
2019-04-10T04:33:06.666Z,28
2019-04-10T04:34:07.188Z,32
2019-04-10T04:35:09.070Z,36
2019-04-10T04:36:10.334Z,40
2019-04-10T04:37:12.369Z,48
2019-04-10T04:38:13.445Z,56
2019-04-10T04:39:21.773Z,60
2019-04-10T04:40:15.658Z,68
2019-04-10T04:41:17.421Z,76
2019-04-10T04:42:18.586Z,88
2019-04-10T04:43:21.650Z,96
2019-04-10T04:44:22.192Z,108
2019-04-10T04:45:23.520Z,124
2019-04-10T04:46:24.305Z,136
2019-04-10T04:47:26.536Z,148
2019-04-10T04:48:28.338Z,160
2019-04-10T04:49:28.757Z,176
2019-04-10T04:50:31.251Z,192
2019-04-10T04:51:31.633Z,208
2019-04-10T04:52:33.031Z,228
2019-04-10T04:53:34.470Z,248
2019-04-10T04:54:35.956Z,268
2019-04-10T04:55:37.431Z,288
2019-04-10T04:56:38.710Z,308
2019-04-10T04:57:41.081Z,332
2019-04-10T04:58:41.639Z,352
2019-04-10T04:59:43.036Z,376
2019-04-10T05:00:44.602Z,404
2019-04-10T05:01:46.852Z,428
2019-04-10T05:02:47.359Z,456
2019-04-10T05:03:48.920Z,484
2019-04-10T05:04:51.414Z,512
2019-04-10T05:05:51.939Z,548
2019-04-10T05:06:53.254Z,580
2019-04-10T05:07:59.615Z,612
2019-04-10T05:08:56.848Z,648
2019-04-10T05:09:59.129Z,688
2019-04-10T05:11:00.034Z,724
2019-04-10T05:12:00.669Z,768
2019-04-10T05:13:01.979Z,812
2019-04-10T05:14:03.185Z,852
2019-04-10T05:15:04.767Z,896
2019-04-10T05:16:06.219Z,948
2019-04-10T05:17:08.021Z,996
2019-04-10T05:18:09.090Z,1044
2019-04-10T05:19:10.493Z,1092
2019-04-10T05:20:11.969Z,1136
2019-04-10T05:21:13.368Z,1176
2019-04-10T05:22:14.877Z,1220
2019-04-10T05:23:16.277Z,1260
2019-04-10T05:24:17.845Z,1300
2019-04-10T05:25:19.175Z,1348
2019-04-10T05:26:20.801Z,1392
2019-04-10T05:27:22.552Z,1432
2019-04-10T05:28:24.215Z,1476
2019-04-10T05:29:25.062Z,1524
2019-04-10T05:30:27.202Z,1576
2019-04-10T05:31:27.795Z,1640
2019-04-10T05:32:29.263Z,1692
2019-04-10T05:33:31.016Z,1752
2019-04-10T05:34:32.254Z,1812
2019-04-10T05:35:33.659Z,1872
2019-04-10T05:36:35.252Z,1932
2019-04-10T05:37:36.688Z,1976
2019-04-10T05:38:38.094Z,2016
2019-04-10T05:39:45.725Z,2052
2019-04-10T05:40:42.128Z,2104
2019-04-10T05:41:42.319Z,2168
2019-04-10T05:42:44.935Z,2216
2019-04-10T05:43:45.226Z,2280
2019-04-10T05:44:47.809Z,2356
2019-04-10T05:45:48.624Z,2460
2019-04-10T05:46:49.626Z,2584
2019-04-10T05:47:51.032Z,2704
2019-04-10T05:48:52.630Z,2796
2019-04-10T05:49:53.876Z,2904
2019-04-10T05:51:02.230Z,3016
2019-04-10T05:51:57.649Z,3292
2019-04-10T05:52:58.273Z,3172
2019-04-10T05:54:00.091Z,3164
2019-04-10T05:55:02.244Z,3612
2019-04-10T05:56:03.508Z,3516
2019-04-10T05:57:04.146Z,4024
2019-04-10T05:58:05.397Z,4112
2019-04-10T05:59:08.540Z,3684
2019-04-10T06:00:08.475Z,4136
2019-04-10T06:01:09.722Z,4084
2019-04-10T06:02:11.113Z,3836
2019-04-10T06:03:12.676Z,3832
2019-04-10T06:04:14.078Z,4024
2019-04-10T06:05:16.183Z,5072
2019-04-10T06:06:16.915Z,4088
2019-04-10T06:07:19.168Z,4200
2019-04-10T06:08:20.268Z,3860
2019-04-10T06:09:22.741Z,3876
2019-04-10T06:10:24.690Z,4168
2019-04-10T06:11:24.945Z,4656
2019-04-10T06:12:26.488Z,7252
2019-04-10T06:13:27.896Z,10692
2019-04-10T06:14:30.392Z,8436
2019-04-10T06:15:30.768Z,7804
2019-04-10T06:16:32.342Z,10028
2019-04-10T06:17:34.337Z,15808
2019-04-10T06:18:35.461Z,13160
2019-04-10T06:19:36.555Z,14080
2019-04-10T06:20:38.088Z,10796
2019-04-10T06:21:39.729Z,9616
2019-04-10T06:22:43.836Z,10756
2019-04-10T06:23:43.509Z,12616
2019-04-10T06:24:44.892Z,11724
2019-04-10T06:25:47.810Z,16960
2019-04-10T06:26:48.217Z,21824
2019-04-10T06:27:50.538Z,19360
2019-04-10T06:28:51.223Z,22016
2019-04-10T06:29:53.141Z,31744
2019-04-10T06:30:54.503Z,36384
2019-04-10T06:31:56.596Z,35232
2019-04-10T06:32:57.880Z,36928
2019-04-10T06:33:58.468Z,38912
2019-04-10T06:34:59.794Z,40064
2019-04-10T06:36:01.195Z,39872
2019-04-10T06:37:03.931Z,37600
2019-04-10T06:38:04.397Z,37984
2019-04-10T06:39:06.644Z,39776
2019-04-10T06:40:14.267Z,40448
2019-04-10T06:41:10.438Z,41344
2019-04-10T06:42:10.703Z,40896
2019-04-10T06:43:12.784Z,41376
2019-04-10T06:44:14.025Z,40672
2019-04-10T06:45:15.488Z,40128
2019-04-10T06:46:16.716Z,39264
2019-04-10T06:47:18.135Z,39328
2019-04-10T06:48:19.311Z,43808
2019-04-10T06:49:20.860Z,43360
2019-04-10T06:50:23.116Z,43072
2019-04-10T06:51:23.737Z,44608
2019-04-10T06:52:25.142Z,46560
2019-04-10T06:53:26.889Z,47008
2019-04-10T06:54:28.810Z,48256
2019-04-10T06:55:30.168Z,49312
2019-04-10T06:56:31.351Z,47104
2019-04-10T06:57:44.515Z,46304
2019-04-10T06:58:34.158Z,50784
2019-04-10T06:59:35.670Z,52480
2019-04-10T07:00:37.079Z,51232
2019-04-10T07:01:44.435Z,52160
2019-04-10T07:02:40.129Z,51680
2019-04-10T07:03:52.782Z,52864
2019-04-10T07:04:48.488Z,55008
2019-04-10T07:05:59.662Z,54176
2019-04-10T07:06:55.926Z,51520
2019-04-10T07:07:51.991Z,53376
2019-04-10T07:08:50.873Z,55584
2019-04-10T07:09:52.365Z,55104
2019-04-10T07:10:58.030Z,57664
2019-04-10T07:11:56.811Z,56864
2019-04-10T07:12:55.368Z,55648
2019-04-10T07:13:57.088Z,55936
2019-04-10T07:14:58.266Z,61056
2019-04-10T07:15:59.915Z,65184
2019-04-10T07:17:05.004Z,61280
2019-04-10T07:18:01.739Z,59040
2019-04-10T07:19:05.592Z,59200
2019-04-10T07:20:05.255Z,62848
2019-04-10T07:21:06.429Z,59264
2019-04-10T07:22:11.950Z,59520
2019-04-10T07:23:08.798Z,50624
2019-04-10T07:24:12.155Z,47712
2019-04-10T07:25:12.868Z,51104
2019-04-10T07:26:18.440Z,55040
2019-04-10T07:27:14.566Z,44352
2019-04-10T07:28:15.971Z,33504
2019-04-10T07:29:21.045Z,29824
2019-04-10T07:30:19.447Z,26304
2019-04-10T07:31:21.377Z,34656
2019-04-10T07:32:24.106Z,33888
2019-04-10T07:33:24.525Z,17312
2019-04-10T07:34:26.917Z,11204
2019-04-10T07:35:28.251Z,13756
2019-04-10T07:36:28.501Z,17056
2019-04-10T07:37:29.174Z,21056
2019-04-10T07:38:30.872Z,24160
2019-04-10T07:39:33.512Z,21312
2019-04-10T07:40:35.957Z,28896
2019-04-10T07:41:35.489Z,33536
2019-04-10T07:42:39.731Z,19840
2019-04-10T07:43:38.545Z,17216
2019-04-10T07:44:39.201Z,19072
2019-04-10T07:45:40.598Z,44864
2019-04-10T07:46:42.379Z,62528
2019-04-10T07:47:44.098Z,66784
2019-04-10T07:48:45.492Z,65152
2019-04-10T07:49:46.457Z,38112
2019-04-10T07:50:48.491Z,34848
2019-04-10T07:51:49.246Z,35520
2019-04-10T07:52:52.003Z,47040
2019-04-10T07:53:52.356Z,58304
2019-04-10T07:54:54.468Z,50400
2019-04-10T07:56:01.400Z,40192
2019-04-10T07:56:56.543Z,43008
2019-04-10T07:57:57.953Z,28416
2019-04-10T07:59:00.570Z,12484
2019-04-10T08:00:00.998Z,14324
2019-04-10T08:01:02.414Z,22816
2019-04-10T08:02:05.956Z,24320
2019-04-10T08:03:06.279Z,24800
2019-04-10T08:04:06.614Z,22848
2019-04-10T08:05:08.666Z,14644
2019-04-10T08:06:11.041Z,18080
2019-04-10T08:07:15.404Z,46464
2019-04-10T08:08:12.857Z,63584
2019-04-10T08:09:14.739Z,59008
2019-04-10T08:10:15.884Z,56960
2019-04-10T08:11:17.597Z,44544
2019-04-10T08:12:19.016Z,40128
2019-04-10T08:13:20.436Z,34144
2019-04-10T08:14:21.785Z,22080
2019-04-10T08:15:23.140Z,23072
2019-04-10T08:16:25.254Z,21920
2019-04-10T08:17:26.251Z,21344
2019-04-10T08:18:27.572Z,36992
2019-04-10T08:19:29.426Z,40256
2019-04-10T08:20:30.648Z,44000
2019-04-10T08:21:31.762Z,56096
2019-04-10T08:22:33.188Z,64192
2019-04-10T08:23:35.731Z,59264
2019-04-10T08:24:36.446Z,53728
2019-04-10T08:25:38.715Z,52640
2019-04-10T08:26:39.064Z,54368
2019-04-10T08:27:41.686Z,44672
2019-04-10T08:28:41.943Z,56832
2019-04-10T08:29:43.454Z,42656
2019-04-10T08:30:45.010Z,50976
2019-04-10T08:31:46.341Z,53664
2019-04-10T08:32:56.052Z,31392
2019-04-10T08:33:49.217Z,28544
2019-04-10T08:34:51.238Z,53440
2019-04-10T08:35:51.996Z,46304
2019-04-10T08:36:55.053Z,37472
2019-04-10T08:37:54.911Z,43616
2019-04-10T08:38:56.998Z,56096
2019-04-10T08:39:58.924Z,59744
2019-04-10T08:40:59.230Z,53504
2019-04-10T08:42:00.742Z,67744
2019-04-10T08:43:02.165Z,85152
2019-04-10T08:44:04.357Z,70144
2019-04-10T08:45:05.198Z,51232
2019-04-10T08:46:06.741Z,40192
2019-04-10T08:47:08.879Z,46112
2019-04-10T08:48:10.040Z,42240
2019-04-10T08:49:12.158Z,48192
2019-04-10T08:50:13.818Z,63648
2019-04-10T08:51:14.923Z,60128
2019-04-10T08:52:16.543Z,77248
2019-04-10T08:53:18.027Z,89056
2019-04-10T08:54:18.658Z,84192
2019-04-10T08:55:20.067Z,84512
2019-04-10T08:56:22.532Z,86912
2019-04-10T08:57:22.962Z,84160
2019-04-10T08:58:24.954Z,81056
2019-04-10T08:59:25.755Z,82944
2019-04-10T09:00:27.285Z,71232
2019-04-10T09:01:29.240Z,68224
2019-04-10T09:02:30.404Z,85120
2019-04-10T09:03:31.609Z,88160
2019-04-10T09:04:33.569Z,76352
2019-04-10T09:05:35.398Z,63776
2019-04-10T09:06:35.926Z,65376
2019-04-10T09:07:38.071Z,60064
2019-04-10T09:08:39.172Z,68544
2019-04-10T09:09:40.247Z,62624
2019-04-10T09:10:42.762Z,61120
2019-04-10T09:11:43.096Z,68608
2019-04-10T09:12:45.113Z,58880
2019-04-10T09:13:46.462Z,72288
2019-04-10T09:14:47.627Z,65664
2019-04-10T09:15:49.894Z,48864
2019-04-10T09:16:51.047Z,33472
2019-04-10T09:17:51.836Z,17600
2019-04-10T09:18:53.819Z,19264
2019-04-10T09:19:54.788Z,15776
2019-04-10T09:20:57.182Z,21280
2019-04-10T09:21:57.817Z,45568
2019-04-10T09:23:15.517Z,71904
2019-04-10T09:24:00.832Z,68480
2019-04-10T09:25:02.843Z,56064
2019-04-10T09:26:03.820Z,49216
2019-04-10T09:27:05.145Z,18560
2019-04-10T09:28:06.626Z,22752
2019-04-10T09:29:08.047Z,34080
2019-04-10T09:30:10.792Z,20256
2019-04-10T09:31:11.126Z,13332
2019-04-10T09:32:12.673Z,11564
2019-04-10T09:33:21.214Z,11360
2019-04-10T09:34:15.813Z,10896
2019-04-10T09:35:16.923Z,10640
2019-04-10T09:36:19.678Z,10580
2019-04-10T09:37:19.963Z,10232
2019-04-10T09:38:21.369Z,9964
2019-04-10T09:39:23.324Z,9800
2019-04-10T09:40:24.484Z,9364
2019-04-10T09:41:25.909Z,9268
2019-04-10T09:42:27.761Z,9032
2019-04-10T09:43:29.584Z,8520
2019-04-10T09:44:30.107Z,8160
2019-04-10T09:45:31.772Z,8004
2019-04-10T09:46:33.204Z,8396
2019-04-10T09:47:34.786Z,8644
2019-04-10T09:48:36.008Z,8172
2019-04-10T09:49:42.063Z,8184
2019-04-10T09:50:39.580Z,7864
2019-04-10T09:51:40.386Z,7812
2019-04-10T09:52:41.869Z,7796
2019-04-10T09:53:43.349Z,7660
2019-04-10T09:54:44.591Z,7736
2019-04-10T09:55:46.871Z,7788
2019-04-10T09:56:47.467Z,7660
2019-04-10T09:57:49.726Z,7460
2019-04-10T09:58:50.347Z,7792
2019-04-10T09:59:52.451Z,7904
2019-04-10T10:00:54.373Z,8180
2019-04-10T10:01:55.045Z,8428
2019-04-10T10:02:56.077Z,8552
2019-04-10T10:03:57.553Z,8212
2019-04-10T10:04:58.957Z,8204
2019-04-10T10:06:01.668Z,7804
2019-04-10T10:07:01.970Z,7916
2019-04-10T10:08:04.269Z,8108
2019-04-10T10:09:04.616Z,8000
2019-04-10T10:10:06.580Z,7956
2019-04-10T10:11:07.565Z,8132
2019-04-10T10:12:09.557Z,8216
2019-04-10T10:13:10.515Z,8476
2019-04-10T10:14:12.526Z,9188
2019-04-10T10:15:13.491Z,9192
2019-04-10T10:16:14.849Z,8052
2019-04-10T10:17:16.793Z,7552
2019-04-10T10:18:17.717Z,7696
2019-04-10T10:19:19.123Z,7796
2019-04-10T10:20:21.711Z,7464
2019-04-10T10:21:22.039Z,7612
2019-04-10T10:22:23.450Z,7976
2019-04-10T10:23:25.495Z,8712
2019-04-10T10:24:26.740Z,10360
2019-04-10T10:25:27.732Z,11544
2019-04-10T10:26:30.138Z,11376
2019-04-10T10:27:30.683Z,10568
2019-04-10T10:28:33.183Z,10248
2019-04-10T10:29:33.605Z,8360
2019-04-10T10:30:35.564Z,9664
2019-04-10T10:31:36.446Z,10260
2019-04-10T10:32:37.858Z,10616
2019-04-10T10:33:39.584Z,10992
2019-04-10T10:34:40.801Z,10972
2019-04-10T10:35:43.188Z,9216
2019-04-10T10:36:46.225Z,7192
2019-04-10T10:37:44.946Z,8892
2019-04-10T10:38:47.430Z,9068
2019-04-10T10:39:47.903Z,9152
2019-04-10T10:40:49.307Z,6720
2019-04-10T10:41:51.067Z,7044
2019-04-10T10:42:52.234Z,8172
2019-04-10T10:43:53.730Z,8888
2019-04-10T10:44:55.144Z,9900
2019-04-10T10:45:56.613Z,10612
2019-04-10T10:46:58.032Z,11284
2019-04-10T10:47:59.426Z,9732
2019-04-10T10:49:02.186Z,7944
2019-04-10T10:50:02.304Z,7548
2019-04-10T10:51:04.510Z,7168
2019-04-10T10:52:05.255Z,7856
2019-04-10T10:53:06.666Z,8332
2019-04-10T10:54:08.570Z,8608
2019-04-10T10:55:09.795Z,8016
2019-04-10T10:56:11.918Z,8304
2019-04-10T10:57:13.099Z,7084
2019-04-10T10:58:13.897Z,8360
2019-04-10T10:59:15.501Z,9696
2019-04-10T11:00:17.074Z,9948
2019-04-10T11:01:18.283Z,9808
2019-04-10T11:02:19.963Z,9120
2019-04-10T11:03:22.352Z,8884
2019-04-10T11:04:23.250Z,6624
2019-04-10T11:05:25.254Z,5132
2019-04-10T11:06:26.772Z,6264
2019-04-10T11:07:27.059Z,6244
2019-04-10T11:08:29.356Z,6408
2019-04-10T11:09:30.205Z,6700
2019-04-10T11:10:31.472Z,7408
2019-04-10T11:11:32.769Z,7792
2019-04-10T11:12:34.227Z,7728
2019-04-10T11:13:36.986Z,8232
2019-04-10T11:14:37.261Z,8876
2019-04-10T11:15:42.419Z,8164
2019-04-10T11:16:41.051Z,6844
2019-04-10T11:17:42.154Z,6512
2019-04-10T11:18:43.277Z,7656
2019-04-10T11:19:45.575Z,6240
2019-04-10T11:20:45.996Z,7568
2019-04-10T11:21:47.490Z,7124
2019-04-10T11:22:49.608Z,6284
2019-04-10T11:23:50.893Z,6616
2019-04-10T11:24:52.282Z,7344
2019-04-10T11:25:55.144Z,8896
2019-04-10T11:26:54.856Z,9868
2019-04-10T11:27:56.461Z,7572
2019-04-10T11:28:58.086Z,6256
2019-04-10T11:30:00.815Z,5988
2019-04-10T11:31:01.385Z,5936
2019-04-10T11:32:01.998Z,5724
2019-04-10T11:33:03.564Z,5432
2019-04-10T11:34:07.588Z,5508
2019-04-10T11:35:06.739Z,5456
2019-04-10T11:36:07.844Z,5544
2019-04-10T11:37:23.326Z,5772
2019-04-10T11:38:10.944Z,5684
2019-04-10T11:39:19.335Z,5420
2019-04-10T11:40:16.337Z,4868
2019-04-10T11:41:15.104Z,4748
2019-04-10T11:42:16.366Z,4668
2019-04-10T11:43:19.043Z,4612
2019-04-10T11:44:20.268Z,4564
2019-04-10T11:45:22.811Z,4628
2019-04-10T11:46:22.729Z,4912
2019-04-10T11:47:24.852Z,5436
2019-04-10T11:48:25.533Z,6124
2019-04-10T11:49:27.682Z,5948
2019-04-10T11:50:29.772Z,4976
2019-04-10T11:51:30.624Z,4652
2019-04-10T11:52:36.343Z,4924
2019-04-10T11:53:37.246Z,4916
2019-04-10T11:54:37.241Z,4960
2019-04-10T11:56:37.971Z,5116
2019-04-10T11:57:38.492Z,4616
2019-04-10T11:58:48.642Z,4188
2019-04-10T11:59:43.945Z,4356
2019-04-10T12:00:50.465Z,4408
2019-04-10T12:01:46.237Z,4628
2019-04-10T12:02:49.297Z,5448
2019-04-10T12:03:50.579Z,4540
2019-04-10T12:05:51.821Z,4232
2019-04-10T12:06:54.029Z,4220
2019-04-10T12:08:15.964Z,4224
2019-04-10T12:11:59.396Z,4368
2019-04-10T12:13:00.550Z,4688
2019-04-10T12:14:02.968Z,5368
2019-04-10T12:15:03.976Z,5756
2019-04-10T12:16:05.123Z,5480
2019-04-10T12:17:06.440Z,4536
2019-04-10T12:18:08.655Z,4620
2019-04-10T12:19:09.189Z,4660
2019-04-10T12:20:11.179Z,4664
2019-04-10T12:21:12.014Z,4748
2019-04-10T12:22:13.663Z,4816
2019-04-10T12:23:14.786Z,4548
2019-04-10T12:24:16.392Z,4464
2019-04-10T12:25:18.675Z,4368
2019-04-10T12:26:19.897Z,4280
2019-04-10T12:27:20.922Z,4320
2019-04-10T12:28:22.189Z,4252
2019-04-10T12:29:24.585Z,4228
2019-04-10T12:30:24.978Z,4348
2019-04-10T12:31:26.384Z,4272
2019-04-10T12:32:28.507Z,4088
2019-04-10T12:33:29.680Z,4100
2019-04-10T12:34:30.599Z,4112
2019-04-10T12:35:32.181Z,4252
2019-04-10T12:36:34.307Z,4292
2019-04-10T12:37:35.021Z,4152
2019-04-10T12:38:36.502Z,4048
2019-04-10T12:39:39.087Z,4032
2019-04-10T12:40:40.433Z,4080
2019-04-10T12:41:41.583Z,4140
2019-04-10T12:42:42.264Z,4088
2019-04-10T12:43:43.668Z,4124
2019-04-10T12:44:45.147Z,3932
2019-04-10T12:45:46.614Z,3796
2019-04-10T12:46:49.128Z,3868
2019-04-10T12:47:50.222Z,3936
2019-04-10T12:48:50.923Z,4120
2019-04-10T12:49:52.317Z,4416
2019-04-10T12:50:53.789Z,4596
2019-04-10T12:51:56.228Z,5448
2019-04-10T12:52:56.775Z,5368
2019-04-10T12:53:58.358Z,4268
2019-04-10T12:54:59.629Z,3092
2019-04-10T12:56:01.958Z,2848
2019-04-10T12:57:02.451Z,2968
2019-04-10T12:58:09.551Z,3048
2019-04-10T12:59:05.201Z,3076
2019-04-10T13:00:06.804Z,3092
2019-04-10T13:01:08.690Z,3072
2019-04-10T13:02:10.872Z,3100
2019-04-10T13:03:11.230Z,3168
2019-04-10T13:04:12.445Z,3336
2019-04-10T13:05:13.857Z,3692
2019-04-10T13:06:15.812Z,4452
2019-04-10T13:07:16.772Z,4924
2019-04-10T13:08:22.912Z,4188
2019-04-10T13:09:19.877Z,3360
2019-04-10T13:10:21.053Z,2608
2019-04-10T13:11:22.616Z,2852
2019-04-10T13:12:25.006Z,3252
2019-04-10T13:13:27.027Z,3428
2019-04-10T13:14:26.932Z,3144
2019-04-10T13:15:29.602Z,3140
2019-04-10T13:16:29.696Z,3216
2019-04-10T13:17:31.242Z,3440
2019-04-10T13:18:32.646Z,3864
2019-04-10T13:19:34.343Z,3820
2019-04-10T13:20:35.739Z,3688
2019-04-10T13:21:36.939Z,3200
2019-04-10T13:22:38.341Z,2688
2019-04-10T13:23:39.886Z,2584
2019-04-10T13:24:41.656Z,3104
2019-04-10T13:25:43.908Z,3096
2019-04-10T13:26:44.132Z,3068
2019-04-10T13:27:45.651Z,3128
2019-04-10T13:28:47.635Z,3144
2019-04-10T13:29:48.809Z,2900
2019-04-10T13:30:53.796Z,2772
2019-04-10T13:31:51.612Z,2664
2019-04-10T13:32:52.792Z,2564
2019-04-10T13:33:55.107Z,2664
2019-04-10T13:34:55.656Z,2644
2019-04-10T13:35:57.637Z,2664
2019-04-10T13:36:58.612Z,2660
2019-04-10T13:38:00.912Z,2684
2019-04-10T13:39:02.365Z,2600
2019-04-10T13:40:03.527Z,2444
2019-04-10T13:41:04.303Z,2464
2019-04-10T13:42:05.816Z,2368
2019-04-10T13:43:07.217Z,2488
2019-04-10T13:44:08.721Z,2468
2019-04-10T13:45:11.038Z,2428
2019-04-10T13:46:11.470Z,2344
2019-04-10T13:47:13.400Z,2156
2019-04-10T13:48:14.500Z,2212
2019-04-10T13:49:15.769Z,2380
2019-04-10T13:50:17.336Z,2392
2019-04-10T13:51:19.289Z,2384
2019-04-10T13:52:20.308Z,2376
2019-04-10T13:53:21.710Z,2364
2019-04-10T13:54:23.099Z,2356
2019-04-10T13:55:24.505Z,2336
2019-04-10T13:56:26.004Z,2324
2019-04-10T13:57:28.564Z,2308
2019-04-10T13:58:29.067Z,2288
2019-04-10T13:59:31.146Z,2280
2019-04-10T14:00:31.777Z,2252
2019-04-10T14:01:33.637Z,2236
2019-04-10T14:02:34.707Z,2244
2019-04-10T14:03:36.534Z,2216
2019-04-10T14:04:37.508Z,2200